»·PEaware :: WAT169 KSAN-KLAS

WAT169 :: KSAN-KLAS

FLIGHT INFORMATION

Flight Status: Arrived
Operator:
Walker Air Transport
More flights by this operator :: More flights under this callsign
Pilot: Marty P. (27464)
Aircraft: BOEING 737-800
(B738)
More flights by this aircraft type
Origin: KSAN San Diego Intl-Lindbergh
United States
Destination: KLAS McCarran Intl
United States
More flights between these airports :: More routes between these airports
Route: PADRZ2 CHKNN SEBBY YELAH MISEN KEPEC6
File this flight plan on PilotEdge
Remarks:
Altitude:
(Current/Filed)
27,000ft
Speed:
(Current/Filed)
480kts
Departed: 04-Aug-20 10:01 PM
Arrived: 04-Aug-20 10:52 PM
Distance/Time
Traveled:
225nm/0:51
Distance/Time
To Go:
Arrived

Flight Plot

Page will automatically refresh every two minutes.

Flight plan parsing failed; only flown route is shown


Map Options




Map Legend


Flown Route
Filed Route
Departure Airport
Arrival Airport
Navaid (VOR, NDB)
Fix

Horizontal Profiles

Position Reports

Time Latitude Longitude Heading Altitude Ground
Speed
04-Aug-20 21:44 32.733216 -117.196883 0 27ft 0kts
04-Aug-20 21:45 32.733216 -117.196884 134 27ft 0kts
04-Aug-20 21:46 32.733216 -117.196884 134 27ft 0kts
04-Aug-20 21:47 32.733216 -117.196884 134 27ft 0kts
04-Aug-20 21:48 32.733216 -117.196884 134 27ft 0kts
04-Aug-20 21:49 32.733216 -117.196884 134 27ft 0kts
04-Aug-20 21:50 32.733216 -117.196884 134 27ft 0kts
04-Aug-20 21:51 32.733216 -117.196884 134 27ft 0kts
04-Aug-20 21:52 32.733283 -117.197078 79 27ft 2kts
04-Aug-20 21:53 32.733468 -117.197134 19 27ft 1kts
04-Aug-20 21:54 32.733537 -117.197104 20 27ft 0kts
04-Aug-20 21:55 32.734070 -117.196731 61 27ft 6kts
04-Aug-20 21:56 32.733133 -117.192185 105 27ft 23kts
04-Aug-20 21:57 32.731405 -117.185045 105 27ft 21kts
04-Aug-20 21:58 32.729902 -117.178830 105 27ft 18kts
04-Aug-20 21:59 32.729732 -117.176038 52 27ft 9kts
04-Aug-20 22:00 32.736901 -117.203734 286 210ft 198kts
04-Aug-20 22:01 32.768242 -117.261579 300 3226ft 232kts
04-Aug-20 22:02 32.803996 -117.325954 305 6811ft 241kts
04-Aug-20 22:03 32.845267 -117.389197 305 10113ft 249kts
04-Aug-20 22:04 32.890950 -117.460170 306 11893ft 309kts
04-Aug-20 22:05 32.950351 -117.552552 306 13553ft 377kts
04-Aug-20 22:06 33.015179 -117.653692 305 16641ft 395kts
04-Aug-20 22:07 33.088871 -117.754545 316 19269ft 416kts
04-Aug-20 22:08 33.178056 -117.845801 317 21576ft 432kts
04-Aug-20 22:09 33.272219 -117.938631 319 23597ft 448kts
04-Aug-20 22:10 33.370319 -118.034243 319 25429ft 462kts
04-Aug-20 22:11 33.471032 -118.132791 319 26982ft 476kts
04-Aug-20 22:12 33.581093 -118.228162 328 27020ft 486kts
04-Aug-20 22:13 33.704014 -118.299213 348 27008ft 496kts
04-Aug-20 22:14 33.822172 -118.232484 53 27015ft 501kts
04-Aug-20 22:15 33.902261 -118.096292 55 27003ft 501kts
04-Aug-20 22:16 33.983347 -117.958610 55 27005ft 501kts
04-Aug-20 22:17 34.064263 -117.821373 55 27028ft 506kts
04-Aug-20 22:18 34.150968 -117.688282 50 27027ft 505kts
04-Aug-20 22:19 34.240214 -117.557339 50 27032ft 506kts
04-Aug-20 22:20 34.329606 -117.426134 50 27026ft 506kts
04-Aug-20 22:21 34.418048 -117.295976 51 27017ft 506kts
04-Aug-20 22:22 34.507013 -117.164594 51 26984ft 508kts
04-Aug-20 22:23 34.596602 -117.031783 51 26936ft 509kts
04-Aug-20 22:24 34.685985 -116.898776 51 26936ft 509kts
04-Aug-20 22:25 34.775437 -116.765154 51 26936ft 509kts
04-Aug-20 22:26 34.868669 -116.635898 43 26936ft 510kts
04-Aug-20 22:27 34.977592 -116.525835 38 26939ft 509kts
04-Aug-20 22:28 35.079548 -116.426523 38 24558ft 449kts
04-Aug-20 22:29 35.171278 -116.317199 45 23955ft 480kts
04-Aug-20 22:30 35.263803 -116.201691 45 22080ft 483kts
04-Aug-20 22:31 35.355319 -116.086808 45 19901ft 467kts
04-Aug-20 22:32 35.444234 -115.974640 46 17798ft 452kts
04-Aug-20 22:33 35.530329 -115.865566 45 15943ft 441kts
04-Aug-20 22:34 35.612796 -115.760782 45 14137ft 406kts
04-Aug-20 22:35 35.686813 -115.666258 46 13024ft 352kts
04-Aug-20 22:36 35.753516 -115.592338 27 13040ft 315kts
04-Aug-20 22:37 35.838837 -115.570867 1 13036ft 315kts
04-Aug-20 22:38 35.926308 -115.565209 9 13018ft 317kts
04-Aug-20 22:39 35.991630 -115.500223 65 12365ft 311kts
04-Aug-20 22:40 36.022691 -115.401628 72 11091ft 300kts
04-Aug-20 22:41 36.026541 -115.308301 97 10400ft 276kts
04-Aug-20 22:42 36.019403 -115.213183 97 9047ft 280kts
04-Aug-20 22:43 36.012865 -115.117781 97 7644ft 270kts
04-Aug-20 22:44 36.007243 -115.028879 97 6249ft 250kts
04-Aug-20 22:45 36.002693 -114.952151 96 5121ft 203kts
04-Aug-20 22:46 36.032789 -114.911066 2 5044ft 203kts
04-Aug-20 22:47 36.072421 -114.945363 275 5004ft 190kts
04-Aug-20 22:48 36.073602 -115.004309 266 4160ft 162kts
04-Aug-20 22:49 36.073638 -115.059473 266 3275ft 155kts
04-Aug-20 22:50 36.073654 -115.113519 267 2430ft 156kts
04-Aug-20 22:51 36.073972 -115.144095 291 2191ft 26kts
04-Aug-20 22:52 36.074891 -115.146214 309 2191ft 8kts
04-Aug-20 22:53 36.078523 -115.147216 357 2191ft 11kts
04-Aug-20 22:55 36.079890 -115.147268 84 2191ft 6kts
04-Aug-20 22:56 36.079924 -115.147058 71 2191ft 0kts
04-Aug-20 22:57 36.079924 -115.147058 71 2191ft 0kts

Navigation Log

Ident Type
Flight plan parsing failed, navigation log unavailable